sensor_id;sensor_type;location;lat;lon;timestamp;P1;durP1;ratioP1;P2;durP2;ratioP2
14722;SDS011;7452;55.594;12.986;2023-03-14T00:01:10;25.53;;;5.47;;
14722;SDS011;7452;55.594;12.986;2023-03-14T00:03:38;19.30;;;5.37;;
14722;SDS011;7452;55.594;12.986;2023-03-14T00:06:06;20.00;;;5.07;;
14722;SDS011;7452;55.594;12.986;2023-03-14T00:08:34;23.27;;;5.13;;
14722;SDS011;7452;55.594;12.986;2023-03-14T00:11:05;22.07;;;5.63;;
14722;SDS011;7452;55.594;12.986;2023-03-14T00:13:34;22.20;;;5.70;;
14722;SDS011;7452;55.594;12.986;2023-03-14T00:16:02;26.23;;;6.47;;
14722;SDS011;7452;55.594;12.986;2023-03-14T00:18:29;17.10;;;5.13;;
14722;SDS011;7452;55.594;12.986;2023-03-14T00:20:57;19.83;;;5.27;;
14722;SDS011;7452;55.594;12.986;2023-03-14T00:23:25;18.13;;;4.87;;
14722;SDS011;7452;55.594;12.986;2023-03-14T00:25:52;23.23;;;5.20;;
14722;SDS011;7452;55.594;12.986;2023-03-14T00:28:20;23.47;;;5.80;;
14722;SDS011;7452;55.594;12.986;2023-03-14T00:30:48;22.70;;;5.13;;
14722;SDS011;7452;55.594;12.986;2023-03-14T00:33:15;26.70;;;5.47;;
14722;SDS011;7452;55.594;12.986;2023-03-14T00:35:42;21.87;;;5.73;;
14722;SDS011;7452;55.594;12.986;2023-03-14T00:38:09;19.77;;;4.47;;
14722;SDS011;7452;55.594;12.986;2023-03-14T00:40:38;18.83;;;5.33;;
14722;SDS011;7452;55.594;12.986;2023-03-14T00:43:05;23.13;;;5.30;;
14722;SDS011;7452;55.594;12.986;2023-03-14T00:45:32;20.97;;;5.30;;
14722;SDS011;7452;55.594;12.986;2023-03-14T00:48:01;23.20;;;5.40;;
14722;SDS011;7452;55.594;12.986;2023-03-14T00:50:28;20.30;;;4.60;;
14722;SDS011;7452;55.594;12.986;2023-03-14T00:52:55;23.63;;;5.07;;
14722;SDS011;7452;55.594;12.986;2023-03-14T00:55:22;23.73;;;5.43;;
14722;SDS011;7452;55.594;12.986;2023-03-14T00:57:49;26.30;;;6.03;;
14722;SDS011;7452;55.594;12.986;2023-03-14T01:00:16;25.03;;;6.00;;
14722;SDS011;7452;55.594;12.986;2023-03-14T01:02:43;26.47;;;5.03;;
14722;SDS011;7452;55.594;12.986;2023-03-14T01:05:11;24.37;;;6.00;;
14722;SDS011;7452;55.594;12.986;2023-03-14T01:07:38;18.37;;;5.47;;
14722;SDS011;7452;55.594;12.986;2023-03-14T01:10:05;27.33;;;6.30;;
14722;SDS011;7452;55.594;12.986;2023-03-14T01:12:33;21.57;;;4.60;;
14722;SDS011;7452;55.594;12.986;2023-03-14T01:15:01;19.40;;;5.40;;
14722;SDS011;7452;55.594;12.986;2023-03-14T01:17:28;16.43;;;5.13;;
14722;SDS011;7452;55.594;12.986;2023-03-14T01:19:55;21.00;;;4.60;;
14722;SDS011;7452;55.594;12.986;2023-03-14T01:22:23;12.90;;;3.87;;
14722;SDS011;7452;55.594;12.986;2023-03-14T01:24:50;20.93;;;5.03;;
14722;SDS011;7452;55.594;12.986;2023-03-14T01:27:19;23.47;;;4.97;;
14722;SDS011;7452;55.594;12.986;2023-03-14T01:29:46;15.70;;;4.60;;
14722;SDS011;7452;55.594;12.986;2023-03-14T01:32:13;19.67;;;5.03;;
14722;SDS011;7452;55.594;12.986;2023-03-14T01:34:40;25.57;;;5.23;;
14722;SDS011;7452;55.594;12.986;2023-03-14T01:37:07;18.93;;;5.30;;
14722;SDS011;7452;55.594;12.986;2023-03-14T01:39:35;19.97;;;4.57;;
14722;SDS011;7452;55.594;12.986;2023-03-14T01:42:02;16.83;;;5.07;;
14722;SDS011;7452;55.594;12.986;2023-03-14T01:47:18;21.30;;;5.13;;
14722;SDS011;7452;55.594;12.986;2023-03-14T01:49:45;18.87;;;4.83;;
14722;SDS011;7452;55.594;12.986;2023-03-14T01:52:16;20.90;;;4.83;;
14722;SDS011;7452;55.594;12.986;2023-03-14T01:54:48;21.20;;;5.40;;
14722;SDS011;7452;55.594;12.986;2023-03-14T01:57:19;20.57;;;4.47;;
14722;SDS011;7452;55.594;12.986;2023-03-14T01:59:49;18.20;;;4.37;;
14722;SDS011;7452;55.594;12.986;2023-03-14T02:02:19;20.77;;;4.77;;
14722;SDS011;7452;55.594;12.986;2023-03-14T02:04:47;17.13;;;5.23;;
14722;SDS011;7452;55.594;12.986;2023-03-14T02:07:16;16.30;;;4.50;;
14722;SDS011;7452;55.594;12.986;2023-03-14T02:09:45;15.77;;;4.47;;
14722;SDS011;7452;55.594;12.986;2023-03-14T02:12:15;16.17;;;4.53;;
14722;SDS011;7452;55.594;12.986;2023-03-14T02:14:43;18.47;;;5.33;;
14722;SDS011;7452;55.594;12.986;2023-03-14T02:17:13;17.50;;;4.70;;
14722;SDS011;7452;55.594;12.986;2023-03-14T02:19:49;23.87;;;4.87;;
14722;SDS011;7452;55.594;12.986;2023-03-14T02:22:23;19.73;;;5.40;;
14722;SDS011;7452;55.594;12.986;2023-03-14T02:24:54;16.93;;;4.30;;
14722;SDS011;7452;55.594;12.986;2023-03-14T02:27:30;20.20;;;5.17;;
14722;SDS011;7452;55.594;12.986;2023-03-14T02:29:57;15.03;;;4.70;;
14722;SDS011;7452;55.594;12.986;2023-03-14T02:32:27;20.47;;;4.93;;
14722;SDS011;7452;55.594;12.986;2023-03-14T02:34:56;17.00;;;4.63;;
14722;SDS011;7452;55.594;12.986;2023-03-14T02:37:26;21.67;;;4.93;;
14722;SDS011;7452;55.594;12.986;2023-03-14T02:39:59;18.60;;;4.53;;
14722;SDS011;7452;55.594;12.986;2023-03-14T02:42:26;18.17;;;4.70;;
14722;SDS011;7452;55.594;12.986;2023-03-14T02:44:55;16.83;;;4.20;;
14722;SDS011;7452;55.594;12.986;2023-03-14T02:47:28;19.00;;;5.13;;
14722;SDS011;7452;55.594;12.986;2023-03-14T02:49:58;23.47;;;4.93;;
14722;SDS011;7452;55.594;12.986;2023-03-14T02:52:27;17.67;;;4.50;;
14722;SDS011;7452;55.594;12.986;2023-03-14T02:54:54;20.50;;;4.47;;
14722;SDS011;7452;55.594;12.986;2023-03-14T02:57:21;18.43;;;4.27;;
14722;SDS011;7452;55.594;12.986;2023-03-14T02:59:48;19.43;;;5.27;;
14722;SDS011;7452;55.594;12.986;2023-03-14T03:02:17;13.10;;;3.97;;
14722;SDS011;7452;55.594;12.986;2023-03-14T03:04:44;21.13;;;5.37;;
14722;SDS011;7452;55.594;12.986;2023-03-14T03:07:11;15.20;;;4.70;;
14722;SDS011;7452;55.594;12.986;2023-03-14T03:09:37;13.47;;;4.00;;
14722;SDS011;7452;55.594;12.986;2023-03-14T03:12:04;19.20;;;4.90;;
14722;SDS011;7452;55.594;12.986;2023-03-14T03:14:31;18.23;;;4.67;;
14722;SDS011;7452;55.594;12.986;2023-03-14T03:16:58;18.87;;;4.63;;
14722;SDS011;7452;55.594;12.986;2023-03-14T03:19:27;19.03;;;4.77;;
14722;SDS011;7452;55.594;12.986;2023-03-14T03:21:54;17.17;;;5.20;;
14722;SDS011;7452;55.594;12.986;2023-03-14T03:24:21;19.07;;;4.80;;
14722;SDS011;7452;55.594;12.986;2023-03-14T03:26:48;19.73;;;4.40;;
14722;SDS011;7452;55.594;12.986;2023-03-14T03:29:14;19.57;;;5.00;;
14722;SDS011;7452;55.594;12.986;2023-03-14T03:31:41;18.37;;;4.30;;
14722;SDS011;7452;55.594;12.986;2023-03-14T03:34:10;16.50;;;4.47;;
14722;SDS011;7452;55.594;12.986;2023-03-14T03:36:38;20.50;;;4.63;;
14722;SDS011;7452;55.594;12.986;2023-03-14T03:39:06;18.00;;;4.13;;
14722;SDS011;7452;55.594;12.986;2023-03-14T03:41:33;18.50;;;4.50;;
14722;SDS011;7452;55.594;12.986;2023-03-14T03:44:00;18.17;;;4.90;;
14722;SDS011;7452;55.594;12.986;2023-03-14T03:46:27;21.40;;;4.57;;
14722;SDS011;7452;55.594;12.986;2023-03-14T03:48:54;17.77;;;4.60;;
14722;SDS011;7452;55.594;12.986;2023-03-14T03:51:21;15.90;;;4.70;;
14722;SDS011;7452;55.594;12.986;2023-03-14T03:53:49;14.53;;;4.30;;
14722;SDS011;7452;55.594;12.986;2023-03-14T03:56:16;15.33;;;4.83;;
14722;SDS011;7452;55.594;12.986;2023-03-14T03:58:43;16.20;;;4.40;;
14722;SDS011;7452;55.594;12.986;2023-03-14T04:01:10;18.07;;;4.37;;
14722;SDS011;7452;55.594;12.986;2023-03-14T04:03:37;16.03;;;4.00;;
14722;SDS011;7452;55.594;12.986;2023-03-14T04:06:06;14.83;;;3.43;;
14722;SDS011;7452;55.594;12.986;2023-03-14T04:08:34;12.93;;;3.83;;
14722;SDS011;7452;55.594;12.986;2023-03-14T04:11:03;13.10;;;4.33;;
14722;SDS011;7452;55.594;12.986;2023-03-14T04:13:31;18.03;;;4.53;;
14722;SDS011;7452;55.594;12.986;2023-03-14T04:15:58;11.60;;;3.37;;
14722;SDS011;7452;55.594;12.986;2023-03-14T04:18:25;14.33;;;4.40;;
14722;SDS011;7452;55.594;12.986;2023-03-14T04:20:52;12.77;;;4.07;;
14722;SDS011;7452;55.594;12.986;2023-03-14T04:23:20;17.40;;;4.27;;
14722;SDS011;7452;55.594;12.986;2023-03-14T04:25:54;12.20;;;3.70;;
14722;SDS011;7452;55.594;12.986;2023-03-14T04:28:23;13.80;;;3.87;;
14722;SDS011;7452;55.594;12.986;2023-03-14T04:30:50;15.33;;;3.93;;
14722;SDS011;7452;55.594;12.986;2023-03-14T04:33:17;12.77;;;3.87;;
14722;SDS011;7452;55.594;12.986;2023-03-14T04:35:44;12.77;;;4.17;;
14722;SDS011;7452;55.594;12.986;2023-03-14T04:38:12;13.60;;;4.47;;
14722;SDS011;7452;55.594;12.986;2023-03-14T04:40:40;11.90;;;3.53;;
14722;SDS011;7452;55.594;12.986;2023-03-14T04:43:07;13.63;;;4.00;;
14722;SDS011;7452;55.594;12.986;2023-03-14T04:45:39;11.53;;;3.40;;
14722;SDS011;7452;55.594;12.986;2023-03-14T04:48:07;12.10;;;3.63;;
14722;SDS011;7452;55.594;12.986;2023-03-14T04:50:34;12.40;;;3.97;;
14722;SDS011;7452;55.594;12.986;2023-03-14T04:53:01;7.63;;;3.43;;
14722;SDS011;7452;55.594;12.986;2023-03-14T04:55:28;16.47;;;4.07;;
14722;SDS011;7452;55.594;12.986;2023-03-14T04:57:55;12.83;;;3.30;;
14722;SDS011;7452;55.594;12.986;2023-03-14T05:00:22;17.57;;;4.00;;
14722;SDS011;7452;55.594;12.986;2023-03-14T05:02:50;13.27;;;4.50;;
14722;SDS011;7452;55.594;12.986;2023-03-14T05:05:18;15.83;;;4.30;;
14722;SDS011;7452;55.594;12.986;2023-03-14T05:07:46;12.60;;;4.00;;
14722;SDS011;7452;55.594;12.986;2023-03-14T05:10:13;12.60;;;3.67;;
14722;SDS011;7452;55.594;12.986;2023-03-14T05:12:40;9.37;;;3.43;;
14722;SDS011;7452;55.594;12.986;2023-03-14T05:15:07;11.77;;;4.53;;
14722;SDS011;7452;55.594;12.986;2023-03-14T05:17:35;8.77;;;3.33;;
14722;SDS011;7452;55.594;12.986;2023-03-14T05:20:04;9.20;;;3.50;;
14722;SDS011;7452;55.594;12.986;2023-03-14T05:22:33;12.23;;;4.17;;
14722;SDS011;7452;55.594;12.986;2023-03-14T05:25:00;9.97;;;3.60;;
14722;SDS011;7452;55.594;12.986;2023-03-14T05:27:27;10.67;;;3.67;;
14722;SDS011;7452;55.594;12.986;2023-03-14T05:29:54;12.97;;;4.37;;
14722;SDS011;7452;55.594;12.986;2023-03-14T05:32:21;9.40;;;3.83;;
14722;SDS011;7452;55.594;12.986;2023-03-14T05:34:50;10.73;;;3.93;;
14722;SDS011;7452;55.594;12.986;2023-03-14T05:37:19;13.07;;;4.20;;
14722;SDS011;7452;55.594;12.986;2023-03-14T05:39:46;11.40;;;4.30;;
14722;SDS011;7452;55.594;12.986;2023-03-14T05:42:13;11.13;;;3.67;;
14722;SDS011;7452;55.594;12.986;2023-03-14T05:44:39;11.73;;;4.00;;
14722;SDS011;7452;55.594;12.986;2023-03-14T05:47:07;8.43;;;3.70;;
14722;SDS011;7452;55.594;12.986;2023-03-14T05:49:33;12.87;;;3.93;;
14722;SDS011;7452;55.594;12.986;2023-03-14T05:52:00;13.33;;;4.00;;
14722;SDS011;7452;55.594;12.986;2023-03-14T05:54:29;14.53;;;3.93;;
14722;SDS011;7452;55.594;12.986;2023-03-14T05:56:55;13.60;;;3.90;;
14722;SDS011;7452;55.594;12.986;2023-03-14T05:59:23;13.30;;;4.00;;
14722;SDS011;7452;55.594;12.986;2023-03-14T06:01:49;18.80;;;4.57;;
14722;SDS011;7452;55.594;12.986;2023-03-14T06:04:16;13.73;;;4.30;;
14722;SDS011;7452;55.594;12.986;2023-03-14T06:06:45;11.47;;;3.83;;
14722;SDS011;7452;55.594;12.986;2023-03-14T06:09:12;12.37;;;4.10;;
14722;SDS011;7452;55.594;12.986;2023-03-14T06:11:41;14.13;;;4.73;;
14722;SDS011;7452;55.594;12.986;2023-03-14T06:14:08;11.70;;;3.60;;
14722;SDS011;7452;55.594;12.986;2023-03-14T06:16:35;10.83;;;3.53;;
14722;SDS011;7452;55.594;12.986;2023-03-14T06:19:02;12.67;;;4.00;;
14722;SDS011;7452;55.594;12.986;2023-03-14T06:21:31;11.63;;;3.90;;
14722;SDS011;7452;55.594;12.986;2023-03-14T06:23:58;12.60;;;4.40;;
14722;SDS011;7452;55.594;12.986;2023-03-14T06:26:25;10.87;;;4.00;;
14722;SDS011;7452;55.594;12.986;2023-03-14T06:29:01;8.03;;;3.40;;
14722;SDS011;7452;55.594;12.986;2023-03-14T06:31:28;8.17;;;3.53;;
14722;SDS011;7452;55.594;12.986;2023-03-14T06:33:55;8.83;;;3.30;;
14722;SDS011;7452;55.594;12.986;2023-03-14T06:36:22;13.20;;;3.90;;
14722;SDS011;7452;55.594;12.986;2023-03-14T06:38:49;9.63;;;3.80;;
14722;SDS011;7452;55.594;12.986;2023-03-14T06:41:16;11.77;;;3.80;;
14722;SDS011;7452;55.594;12.986;2023-03-14T06:43:43;13.37;;;3.90;;
14722;SDS011;7452;55.594;12.986;2023-03-14T06:46:11;12.40;;;4.17;;
14722;SDS011;7452;55.594;12.986;2023-03-14T06:48:38;10.77;;;4.20;;
14722;SDS011;7452;55.594;12.986;2023-03-14T06:51:05;13.43;;;4.77;;
14722;SDS011;7452;55.594;12.986;2023-03-14T06:53:33;10.70;;;4.20;;
14722;SDS011;7452;55.594;12.986;2023-03-14T06:56:00;10.13;;;4.50;;
14722;SDS011;7452;55.594;12.986;2023-03-14T06:58:27;12.10;;;4.53;;
14722;SDS011;7452;55.594;12.986;2023-03-14T07:00:54;8.63;;;4.00;;
14722;SDS011;7452;55.594;12.986;2023-03-14T07:03:23;12.10;;;4.83;;
14722;SDS011;7452;55.594;12.986;2023-03-14T07:05:49;9.50;;;4.60;;
14722;SDS011;7452;55.594;12.986;2023-03-14T07:08:17;9.57;;;4.50;;
14722;SDS011;7452;55.594;12.986;2023-03-14T07:10:44;9.63;;;4.53;;
14722;SDS011;7452;55.594;12.986;2023-03-14T07:13:11;11.57;;;5.33;;
14722;SDS011;7452;55.594;12.986;2023-03-14T07:15:38;10.53;;;4.60;;
14722;SDS011;7452;55.594;12.986;2023-03-14T07:18:05;10.73;;;4.93;;
14722;SDS011;7452;55.594;12.986;2023-03-14T07:20:33;11.10;;;4.87;;
14722;SDS011;7452;55.594;12.986;2023-03-14T07:23:00;12.43;;;5.90;;
14722;SDS011;7452;55.594;12.986;2023-03-14T07:25:28;9.43;;;5.10;;
14722;SDS011;7452;55.594;12.986;2023-03-14T07:27:55;11.83;;;5.00;;
14722;SDS011;7452;55.594;12.986;2023-03-14T07:30:22;11.70;;;4.97;;
14722;SDS011;7452;55.594;12.986;2023-03-14T07:32:49;11.40;;;5.17;;
14722;SDS011;7452;55.594;12.986;2023-03-14T07:35:16;11.97;;;5.27;;
14722;SDS011;7452;55.594;12.986;2023-03-14T07:37:44;10.23;;;4.47;;
14722;SDS011;7452;55.594;12.986;2023-03-14T07:40:11;11.07;;;5.83;;
14722;SDS011;7452;55.594;12.986;2023-03-14T07:42:40;8.33;;;4.47;;
14722;SDS011;7452;55.594;12.986;2023-03-14T07:45:07;11.40;;;4.93;;
14722;SDS011;7452;55.594;12.986;2023-03-14T07:47:35;12.10;;;4.90;;
14722;SDS011;7452;55.594;12.986;2023-03-14T07:50:03;8.93;;;4.73;;
14722;SDS011;7452;55.594;12.986;2023-03-14T07:52:30;11.33;;;5.00;;
14722;SDS011;7452;55.594;12.986;2023-03-14T07:54:59;12.60;;;4.73;;
14722;SDS011;7452;55.594;12.986;2023-03-14T07:57:26;10.83;;;4.73;;
14722;SDS011;7452;55.594;12.986;2023-03-14T07:59:52;11.50;;;4.90;;
14722;SDS011;7452;55.594;12.986;2023-03-14T08:02:19;7.63;;;4.20;;
14722;SDS011;7452;55.594;12.986;2023-03-14T08:04:48;9.70;;;4.40;;
14722;SDS011;7452;55.594;12.986;2023-03-14T08:07:16;10.57;;;4.30;;
14722;SDS011;7452;55.594;12.986;2023-03-14T08:09:43;8.33;;;4.77;;
14722;SDS011;7452;55.594;12.986;2023-03-14T08:12:11;8.93;;;4.53;;
14722;SDS011;7452;55.594;12.986;2023-03-14T08:14:38;8.77;;;4.43;;
14722;SDS011;7452;55.594;12.986;2023-03-14T08:17:05;8.13;;;3.73;;
14722;SDS011;7452;55.594;12.986;2023-03-14T08:19:33;7.90;;;3.77;;
14722;SDS011;7452;55.594;12.986;2023-03-14T08:22:00;6.20;;;3.63;;
14722;SDS011;7452;55.594;12.986;2023-03-14T08:24:27;6.10;;;3.23;;
14722;SDS011;7452;55.594;12.986;2023-03-14T08:26:54;6.43;;;2.90;;
14722;SDS011;7452;55.594;12.986;2023-03-14T08:29:23;5.97;;;2.77;;
14722;SDS011;7452;55.594;12.986;2023-03-14T08:31:49;6.70;;;2.80;;
14722;SDS011;7452;55.594;12.986;2023-03-14T08:34:16;9.97;;;3.03;;
14722;SDS011;7452;55.594;12.986;2023-03-14T08:36:44;5.57;;;3.20;;
14722;SDS011;7452;55.594;12.986;2023-03-14T08:39:11;6.40;;;3.03;;
14722;SDS011;7452;55.594;12.986;2023-03-14T08:41:38;5.23;;;2.80;;
14722;SDS011;7452;55.594;12.986;2023-03-14T08:44:07;6.50;;;2.77;;
14722;SDS011;7452;55.594;12.986;2023-03-14T08:46:36;4.70;;;2.70;;
14722;SDS011;7452;55.594;12.986;2023-03-14T08:49:03;9.23;;;2.90;;
14722;SDS011;7452;55.594;12.986;2023-03-14T08:51:30;6.30;;;3.10;;
14722;SDS011;7452;55.594;12.986;2023-03-14T08:53:57;5.70;;;2.80;;
14722;SDS011;7452;55.594;12.986;2023-03-14T08:56:24;5.87;;;2.90;;
14722;SDS011;7452;55.594;12.986;2023-03-14T08:58:50;5.77;;;2.93;;
14722;SDS011;7452;55.594;12.986;2023-03-14T09:01:17;5.00;;;2.80;;
14722;SDS011;7452;55.594;12.986;2023-03-14T09:03:47;10.00;;;2.83;;
14722;SDS011;7452;55.594;12.986;2023-03-14T09:06:14;5.63;;;3.03;;
14722;SDS011;7452;55.594;12.986;2023-03-14T09:08:43;10.10;;;2.97;;
14722;SDS011;7452;55.594;12.986;2023-03-14T09:11:10;4.20;;;2.30;;
14722;SDS011;7452;55.594;12.986;2023-03-14T09:13:36;5.93;;;2.70;;
14722;SDS011;7452;55.594;12.986;2023-03-14T09:16:04;3.77;;;2.33;;
14722;SDS011;7452;55.594;12.986;2023-03-14T09:18:32;5.97;;;2.50;;
14722;SDS011;7452;55.594;12.986;2023-03-14T09:21:02;7.23;;;2.60;;
14722;SDS011;7452;55.594;12.986;2023-03-14T09:23:30;7.07;;;2.73;;
14722;SDS011;7452;55.594;12.986;2023-03-14T09:25:58;6.50;;;2.50;;
14722;SDS011;7452;55.594;12.986;2023-03-14T09:28:25;4.27;;;2.47;;
14722;SDS011;7452;55.594;12.986;2023-03-14T09:30:53;6.33;;;2.80;;
14722;SDS011;7452;55.594;12.986;2023-03-14T09:33:20;5.13;;;2.80;;
14722;SDS011;7452;55.594;12.986;2023-03-14T09:35:47;7.80;;;2.63;;
14722;SDS011;7452;55.594;12.986;2023-03-14T09:38:16;6.70;;;2.97;;
14722;SDS011;7452;55.594;12.986;2023-03-14T09:40:42;5.97;;;3.40;;
14722;SDS011;7452;55.594;12.986;2023-03-14T09:43:10;4.93;;;3.10;;
14722;SDS011;7452;55.594;12.986;2023-03-14T09:45:40;8.43;;;3.70;;
14722;SDS011;7452;55.594;12.986;2023-03-14T09:48:11;8.47;;;3.30;;
14722;SDS011;7452;55.594;12.986;2023-03-14T09:50:42;7.93;;;3.33;;
14722;SDS011;7452;55.594;12.986;2023-03-14T09:53:11;4.77;;;2.60;;
14722;SDS011;7452;55.594;12.986;2023-03-14T09:55:43;4.43;;;2.10;;
14722;SDS011;7452;55.594;12.986;2023-03-14T09:58:14;5.43;;;1.90;;
14722;SDS011;7452;55.594;12.986;2023-03-14T10:00:44;5.67;;;1.53;;
14722;SDS011;7452;55.594;12.986;2023-03-14T10:03:20;5.50;;;1.70;;
14722;SDS011;7452;55.594;12.986;2023-03-14T10:05:50;6.97;;;2.00;;
14722;SDS011;7452;55.594;12.986;2023-03-14T10:08:18;9.17;;;2.00;;
14722;SDS011;7452;55.594;12.986;2023-03-14T10:10:47;7.93;;;2.47;;
14722;SDS011;7452;55.594;12.986;2023-03-14T10:13:15;10.03;;;2.17;;
14722;SDS011;7452;55.594;12.986;2023-03-14T10:15:46;9.13;;;2.90;;
14722;SDS011;7452;55.594;12.986;2023-03-14T10:18:15;6.83;;;1.90;;
14722;SDS011;7452;55.594;12.986;2023-03-14T10:20:43;10.70;;;2.13;;
14722;SDS011;7452;55.594;12.986;2023-03-14T10:23:23;10.53;;;2.60;;
14722;SDS011;7452;55.594;12.986;2023-03-14T10:26:05;7.53;;;2.07;;
14722;SDS011;7452;55.594;12.986;2023-03-14T10:28:37;13.20;;;2.40;;
14722;SDS011;7452;55.594;12.986;2023-03-14T10:31:05;10.37;;;2.53;;
14722;SDS011;7452;55.594;12.986;2023-03-14T10:33:33;10.80;;;2.43;;
14722;SDS011;7452;55.594;12.986;2023-03-14T10:36:03;13.07;;;2.17;;
14722;SDS011;7452;55.594;12.986;2023-03-14T10:38:33;9.83;;;2.20;;
14722;SDS011;7452;55.594;12.986;2023-03-14T10:41:02;5.80;;;1.90;;
14722;SDS011;7452;55.594;12.986;2023-03-14T10:43:41;6.40;;;2.20;;
14722;SDS011;7452;55.594;12.986;2023-03-14T10:46:09;8.17;;;1.87;;
14722;SDS011;7452;55.594;12.986;2023-03-14T10:48:42;14.03;;;2.97;;
14722;SDS011;7452;55.594;12.986;2023-03-14T10:51:11;7.97;;;1.73;;
14722;SDS011;7452;55.594;12.986;2023-03-14T10:53:47;11.27;;;2.87;;
14722;SDS011;7452;55.594;12.986;2023-03-14T10:56:18;6.40;;;2.00;;
14722;SDS011;7452;55.594;12.986;2023-03-14T10:58:46;6.97;;;2.53;;
14722;SDS011;7452;55.594;12.986;2023-03-14T11:04:05;7.50;;;1.57;;
14722;SDS011;7452;55.594;12.986;2023-03-14T11:06:42;6.13;;;1.60;;
14722;SDS011;7452;55.594;12.986;2023-03-14T11:09:15;5.47;;;1.37;;
14722;SDS011;7452;55.594;12.986;2023-03-14T11:11:48;8.40;;;1.50;;
14722;SDS011;7452;55.594;12.986;2023-03-14T11:14:17;3.40;;;1.47;;
14722;SDS011;7452;55.594;12.986;2023-03-14T11:16:52;7.57;;;1.70;;
14722;SDS011;7452;55.594;12.986;2023-03-14T11:19:29;7.40;;;1.60;;
14722;SDS011;7452;55.594;12.986;2023-03-14T11:22:05;4.80;;;1.50;;
14722;SDS011;7452;55.594;12.986;2023-03-14T11:24:42;4.10;;;1.40;;
14722;SDS011;7452;55.594;12.986;2023-03-14T11:27:22;3.60;;;1.00;;
14722;SDS011;7452;55.594;12.986;2023-03-14T11:29:55;2.73;;;1.27;;
14722;SDS011;7452;55.594;12.986;2023-03-14T11:32:35;2.63;;;1.00;;
14722;SDS011;7452;55.594;12.986;2023-03-14T11:35:12;6.60;;;1.40;;
14722;SDS011;7452;55.594;12.986;2023-03-14T11:37:45;2.67;;;1.20;;
14722;SDS011;7452;55.594;12.986;2023-03-14T11:40:17;2.77;;;1.00;;
14722;SDS011;7452;55.594;12.986;2023-03-14T11:42:49;4.57;;;1.20;;
14722;SDS011;7452;55.594;12.986;2023-03-14T11:45:22;3.20;;;1.00;;
14722;SDS011;7452;55.594;12.986;2023-03-14T11:47:59;3.23;;;1.30;;
14722;SDS011;7452;55.594;12.986;2023-03-14T11:50:36;5.40;;;1.30;;
14722;SDS011;7452;55.594;12.986;2023-03-14T11:53:07;4.63;;;1.20;;
14722;SDS011;7452;55.594;12.986;2023-03-14T11:55:39;7.40;;;1.50;;
14722;SDS011;7452;55.594;12.986;2023-03-14T11:58:11;4.93;;;1.30;;
14722;SDS011;7452;55.594;12.986;2023-03-14T12:00:42;5.13;;;1.00;;
14722;SDS011;7452;55.594;12.986;2023-03-14T12:03:11;4.83;;;1.20;;
14722;SDS011;7452;55.594;12.986;2023-03-14T12:05:46;5.17;;;1.70;;
14722;SDS011;7452;55.594;12.986;2023-03-14T12:08:33;7.70;;;1.70;;
14722;SDS011;7452;55.594;12.986;2023-03-14T12:11:08;5.60;;;1.30;;
14722;SDS011;7452;55.594;12.986;2023-03-14T12:13:45;5.10;;;1.37;;
14722;SDS011;7452;55.594;12.986;2023-03-14T12:16:30;3.83;;;1.20;;
14722;SDS011;7452;55.594;12.986;2023-03-14T12:22:01;5.47;;;1.43;;
14722;SDS011;7452;55.594;12.986;2023-03-14T12:25:03;4.03;;;1.47;;
14722;SDS011;7452;55.594;12.986;2023-03-14T12:30:34;4.40;;;1.50;;
14722;SDS011;7452;55.594;12.986;2023-03-14T12:36:04;9.17;;;1.83;;
14722;SDS011;7452;55.594;12.986;2023-03-14T12:38:59;8.77;;;2.00;;
14722;SDS011;7452;55.594;12.986;2023-03-14T12:41:51;4.53;;;1.90;;
14722;SDS011;7452;55.594;12.986;2023-03-14T12:50:30;9.50;;;2.00;;
14722;SDS011;7452;55.594;12.986;2023-03-14T12:55:58;6.63;;;1.80;;
14722;SDS011;7452;55.594;12.986;2023-03-14T12:58:33;7.73;;;1.83;;
14722;SDS011;7452;55.594;12.986;2023-03-14T13:01:05;5.83;;;1.80;;
14722;SDS011;7452;55.594;12.986;2023-03-14T13:03:38;9.87;;;2.10;;
14722;SDS011;7452;55.594;12.986;2023-03-14T13:06:10;8.73;;;1.97;;
14722;SDS011;7452;55.594;12.986;2023-03-14T13:08:38;6.73;;;1.93;;
14722;SDS011;7452;55.594;12.986;2023-03-14T13:11:07;10.30;;;2.03;;
14722;SDS011;7452;55.594;12.986;2023-03-14T13:13:37;8.93;;;2.10;;
14722;SDS011;7452;55.594;12.986;2023-03-14T13:16:09;8.07;;;1.63;;
14722;SDS011;7452;55.594;12.986;2023-03-14T13:18:42;5.33;;;1.90;;
14722;SDS011;7452;55.594;12.986;2023-03-14T13:21:13;6.43;;;1.97;;
14722;SDS011;7452;55.594;12.986;2023-03-14T13:23:53;7.63;;;2.27;;
14722;SDS011;7452;55.594;12.986;2023-03-14T13:26:21;10.90;;;2.07;;
14722;SDS011;7452;55.594;12.986;2023-03-14T13:28:51;8.90;;;2.00;;
14722;SDS011;7452;55.594;12.986;2023-03-14T13:31:20;6.30;;;1.70;;
14722;SDS011;7452;55.594;12.986;2023-03-14T13:33:59;4.90;;;1.90;;
14722;SDS011;7452;55.594;12.986;2023-03-14T13:36:28;10.53;;;2.47;;
14722;SDS011;7452;55.594;12.986;2023-03-14T13:38:55;6.73;;;1.97;;
14722;SDS011;7452;55.594;12.986;2023-03-14T13:41:23;7.30;;;2.00;;
14722;SDS011;7452;55.594;12.986;2023-03-14T13:43:51;7.43;;;1.67;;
14722;SDS011;7452;55.594;12.986;2023-03-14T13:46:24;9.17;;;2.33;;
14722;SDS011;7452;55.594;12.986;2023-03-14T13:48:52;4.93;;;1.63;;
14722;SDS011;7452;55.594;12.986;2023-03-14T13:51:21;7.73;;;1.80;;
14722;SDS011;7452;55.594;12.986;2023-03-14T13:53:55;6.80;;;1.90;;
14722;SDS011;7452;55.594;12.986;2023-03-14T13:56:23;7.77;;;1.60;;
14722;SDS011;7452;55.594;12.986;2023-03-14T13:58:51;5.00;;;1.70;;
14722;SDS011;7452;55.594;12.986;2023-03-14T14:01:19;9.03;;;1.83;;
14722;SDS011;7452;55.594;12.986;2023-03-14T14:03:49;5.70;;;1.80;;
14722;SDS011;7452;55.594;12.986;2023-03-14T14:06:29;6.33;;;1.97;;
14722;SDS011;7452;55.594;12.986;2023-03-14T14:09:00;7.23;;;2.30;;
14722;SDS011;7452;55.594;12.986;2023-03-14T14:11:35;6.27;;;1.70;;
14722;SDS011;7452;55.594;12.986;2023-03-14T14:14:08;6.43;;;1.70;;
14722;SDS011;7452;55.594;12.986;2023-03-14T14:16:39;8.13;;;1.93;;
14722;SDS011;7452;55.594;12.986;2023-03-14T14:19:07;4.03;;;1.63;;
14722;SDS011;7452;55.594;12.986;2023-03-14T14:21:35;8.57;;;2.13;;
14722;SDS011;7452;55.594;12.986;2023-03-14T14:24:04;6.93;;;1.80;;
14722;SDS011;7452;55.594;12.986;2023-03-14T14:26:31;8.07;;;1.60;;
14722;SDS011;7452;55.594;12.986;2023-03-14T14:28:59;7.90;;;1.77;;
14722;SDS011;7452;55.594;12.986;2023-03-14T14:31:28;7.60;;;1.80;;
14722;SDS011;7452;55.594;12.986;2023-03-14T14:33:55;5.57;;;1.43;;
14722;SDS011;7452;55.594;12.986;2023-03-14T14:36:24;7.03;;;2.00;;
14722;SDS011;7452;55.594;12.986;2023-03-14T14:38:56;7.80;;;1.90;;
14722;SDS011;7452;55.594;12.986;2023-03-14T14:41:33;8.47;;;2.03;;
14722;SDS011;7452;55.594;12.986;2023-03-14T14:44:02;6.37;;;1.50;;
14722;SDS011;7452;55.594;12.986;2023-03-14T14:46:30;9.13;;;1.83;;
14722;SDS011;7452;55.594;12.986;2023-03-14T14:49:02;6.50;;;1.73;;
14722;SDS011;7452;55.594;12.986;2023-03-14T14:51:31;6.67;;;1.60;;
14722;SDS011;7452;55.594;12.986;2023-03-14T14:54:04;6.53;;;2.40;;
14722;SDS011;7452;55.594;12.986;2023-03-14T14:56:38;7.70;;;1.97;;
14722;SDS011;7452;55.594;12.986;2023-03-14T14:59:07;7.67;;;1.77;;
14722;SDS011;7452;55.594;12.986;2023-03-14T15:01:45;6.07;;;1.57;;
14722;SDS011;7452;55.594;12.986;2023-03-14T15:04:15;6.10;;;1.67;;
14722;SDS011;7452;55.594;12.986;2023-03-14T15:06:42;5.30;;;1.57;;
14722;SDS011;7452;55.594;12.986;2023-03-14T15:09:11;7.13;;;1.60;;
14722;SDS011;7452;55.594;12.986;2023-03-14T15:11:40;10.13;;;1.80;;
14722;SDS011;7452;55.594;12.986;2023-03-14T15:14:08;9.17;;;1.60;;
14722;SDS011;7452;55.594;12.986;2023-03-14T15:16:34;6.33;;;2.03;;